Time;durP1;ratioP1;P1;durP2;ratioP2;P2;SDS_P1;SDS_P2;PMS_P1;PMS_P2;Temp;Humidity;BMP_temperature;BMP_pressure;BME280_temperature;BME280_humidity;BME280_pressure;Samples;Min_cycle;Max_cycle;Signal;HPM_P1;HPM_P2
2020/12/21 00:01:53;;;;;;;11.73;2.47;;;;;;;6.25;86.03;100739.66;5077356;28;20060;-75
2020/12/21 00:04:20;;;;;;;14.52;2.58;;;;;;;6.24;85.96;100737.94;5077294;28;20053;-73
2020/12/21 00:06:59;;;;;;;9.25;2.42;;;;;;;6.18;86.22;100728.41;5076240;28;20071;-74
2020/12/21 00:09:25;;;;;;;13.00;2.70;;;;;;;6.15;86.40;100731.16;5077066;28;20078;-73
2020/12/21 00:11:51;;;;;;;12.85;3.30;;;;;;;6.16;86.62;100729.38;5077049;28;20074;-74
2020/12/21 00:14:18;;;;;;;16.67;2.67;;;;;;;6.18;86.71;100728.41;5075871;28;20056;-75
2020/12/21 00:16:50;;;;;;;8.35;2.13;;;;;;;6.19;86.32;100737.22;5075851;28;20074;-74
2020/12/21 00:19:18;;;;;;;17.60;2.88;;;;;;;6.14;86.55;100726.78;5077358;28;20044;-76
2020/12/21 00:21:47;;;;;;;18.83;3.38;;;;;;;6.13;86.82;100735.66;5077101;28;20048;-72
2020/12/21 00:24:13;;;;;;;14.77;2.45;;;;;;;6.04;86.49;100712.97;5076746;28;20065;-74
2020/12/21 00:26:50;;;;;;;15.15;2.90;;;;;;;6.06;86.56;100715.56;5075553;28;20071;-74
2020/12/21 00:29:17;;;;;;;14.70;3.08;;;;;;;6.01;86.59;100705.09;5076826;28;20114;-73
2020/12/21 00:31:44;;;;;;;15.60;2.97;;;;;;;5.98;86.89;100716.66;5076857;28;20052;-74
2020/12/21 00:34:11;;;;;;;11.93;2.67;;;;;;;5.99;87.28;100717.50;5076766;28;20053;-73
2020/12/21 00:36:41;;;;;;;10.38;2.40;;;;;;;5.92;87.07;100703.63;5076370;28;20118;-75
2020/12/21 00:39:09;;;;;;;18.47;2.80;;;;;;;5.89;86.89;100695.75;5076634;28;20048;-75
2020/12/21 00:41:36;;;;;;;10.63;2.10;;;;;;;5.95;86.76;100705.31;5076613;28;20274;-74
2020/12/21 00:44:03;;;;;;;14.68;2.63;;;;;;;5.97;86.72;100709.63;5076413;28;20060;-76
2020/12/21 00:46:30;;;;;;;14.88;3.60;;;;;;;5.88;86.78;100698.47;5075180;28;20052;-74
2020/12/21 00:48:57;;;;;;;15.27;2.63;;;;;;;6.00;87.13;100713.09;5076335;28;20052;-74
2020/12/21 00:51:24;;;;;;;6.65;2.20;;;;;;;5.93;87.37;100705.34;5076204;28;20452;-75
2020/12/21 00:53:50;;;;;;;12.98;2.75;;;;;;;5.95;87.03;100710.59;5075030;28;20064;-73
2020/12/21 00:56:19;;;;;;;11.10;2.45;;;;;;;5.95;87.05;100710.59;5076055;28;20053;-74
2020/12/21 00:58:46;;;;;;;16.38;2.50;;;;;;;5.91;86.99;100712.47;5076164;28;20056;-75
2020/12/21 01:01:21;;;;;;;13.75;2.47;;;;;;;5.82;87.50;100699.53;5076172;28;20110;-74
2020/12/21 01:04:05;;;;;;;13.75;2.38;;;;;;;5.93;87.34;100708.00;5075925;28;20058;-75
2020/12/21 01:06:32;;;;;;;14.40;2.47;;;;;;;5.85;87.04;100715.34;5075566;28;20044;-73
2020/12/21 01:08:59;;;;;;;17.80;2.72;;;;;;;5.87;87.25;100712.66;5075851;28;20445;-74
2020/12/21 01:11:29;;;;;;;12.32;2.88;;;;;;;5.85;87.32;100705.59;5076060;28;20057;-74
2020/12/21 01:13:57;;;;;;;8.88;2.45;;;;;;;5.76;87.19;100679.41;5075952;28;20058;-73
2020/12/21 01:16:24;;;;;;;8.50;2.78;;;;;;;5.90;87.29;100696.63;5075339;28;20503;-76
2020/12/21 01:18:50;;;;;;;10.32;2.92;;;;;;;5.83;86.97;100696.81;5074588;28;20048;-75
2020/12/21 01:21:27;;;;;;;13.02;3.08;;;;;;;5.83;87.44;100704.78;5075750;28;20060;-75
2020/12/21 01:23:55;;;;;;;6.03;1.85;;;;;;;5.82;87.40;100700.41;5075710;28;20056;-74
2020/12/21 01:26:21;;;;;;;12.18;2.13;;;;;;;5.81;87.31;100696.03;5075537;28;20088;-75
2020/12/21 01:28:48;;;;;;;9.82;3.00;;;;;;;5.76;87.23;100697.94;5075555;28;20102;-74
2020/12/21 01:31:15;;;;;;;7.88;1.70;;;;;;;5.80;87.29;100702.25;5075390;28;20140;-74
2020/12/21 01:33:43;;;;;;;13.32;2.38;;;;;;;5.63;87.25;100683.38;5075557;28;20052;-74
2020/12/21 01:36:09;;;;;;;10.40;1.98;;;;;;;5.71;87.56;100702.53;5074342;28;20074;-73
2020/12/21 01:38:35;;;;;;;13.32;2.60;;;;;;;5.81;87.30;100709.28;5075683;28;20059;-75
2020/12/21 01:41:02;;;;;;;11.80;2.15;;;;;;;5.73;87.37;100706.00;5075281;28;20071;-74
2020/12/21 01:43:28;;;;;;;13.07;2.10;;;;;;;5.71;87.30;100707.81;5075368;28;20055;-74
2020/12/21 01:45:54;;;;;;;10.70;2.13;;;;;;;5.78;87.09;100717.28;5074972;28;20048;-73
2020/12/21 01:48:21;;;;;;;11.75;2.10;;;;;;;5.82;87.04;100715.41;5075430;28;20048;-73
2020/12/21 01:50:47;;;;;;;12.52;2.05;;;;;;;5.82;87.15;100707.47;5075431;28;20052;-77
2020/12/21 01:53:14;;;;;;;10.75;1.92;;;;;;;5.77;87.17;100712.91;5075096;28;20053;-75
2020/12/21 01:55:44;;;;;;;7.50;1.98;;;;;;;5.80;87.25;100714.59;5075089;28;20170;-75
2020/12/21 01:58:10;;;;;;;10.82;2.20;;;;;;;5.73;87.11;100716.59;5075193;28;20426;-73
2020/12/21 02:00:36;;;;;;;10.50;2.58;;;;;;;5.74;87.00;100709.50;5074961;28;20106;-74
2020/12/21 02:03:08;;;;;;;9.50;2.05;;;;;;;5.72;87.35;100720.13;5074284;28;20067;-73
2020/12/21 02:05:36;;;;;;;11.43;2.08;;;;;;;5.65;87.41;100705.34;5075172;28;20052;-74
2020/12/21 02:08:05;;;;;;;9.85;2.40;;;;;;;5.69;86.95;100709.66;5074963;28;20087;-74
2020/12/21 02:10:32;;;;;;;11.98;2.10;;;;;;;5.79;86.92;100718.19;5073764;28;20052;-75
2020/12/21 02:12:58;;;;;;;9.93;2.03;;;;;;;5.78;86.91;100706.69;5073798;28;20430;-74
2020/12/21 02:15:24;;;;;;;13.88;2.42;;;;;;;5.83;86.71;100718.03;5074863;28;20048;-75
2020/12/21 02:17:52;;;;;;;9.23;2.05;;;;;;;5.78;86.57;100705.84;5074476;28;20052;-74
2020/12/21 02:20:29;;;;;;;14.57;2.70;;;;;;;5.83;86.41;100702.13;5074931;28;20496;-75
2020/12/21 02:22:55;;;;;;;14.38;2.55;;;;;;;5.87;86.68;100715.28;5075346;28;20061;-76
2020/12/21 02:25:21;;;;;;;11.77;2.03;;;;;;;5.74;86.29;100694.50;5074555;28;20823;-72
2020/12/21 02:27:47;;;;;;;12.55;2.65;;;;;;;5.78;86.85;100714.66;5074714;28;20423;-75
2020/12/21 02:30:13;;;;;;;9.60;1.90;;;;;;;5.79;86.64;100708.47;5074926;28;20074;-76
2020/12/21 02:32:40;;;;;;;12.88;2.28;;;;;;;5.78;86.55;100709.34;5074934;28;20076;-72
2020/12/21 02:35:06;;;;;;;5.97;1.63;;;;;;;5.79;86.96;100710.22;5074784;28;20109;-75
2020/12/21 02:37:33;;;;;;;10.57;1.60;;;;;;;5.78;86.65;100701.41;5074634;28;20341;-72
2020/12/21 02:40:00;;;;;;;15.73;3.00;;;;;;;5.80;86.39;100698.72;5074861;28;20049;-76
2020/12/21 02:42:26;;;;;;;15.15;2.60;;;;;;;5.79;86.67;100689.03;5073460;28;20496;-74
2020/12/21 02:44:52;;;;;;;15.25;2.33;;;;;;;5.72;86.64;100685.69;5074684;28;20052;-74
2020/12/21 02:47:18;;;;;;;14.70;2.28;;;;;;;5.69;86.82;100685.81;5074434;28;20045;-74
2020/12/21 02:49:45;;;;;;;7.18;1.65;;;;;;;5.78;86.46;100698.75;5074506;28;20044;-75
2020/12/21 02:52:11;;;;;;;9.27;2.13;;;;;;;5.68;86.67;100684.94;5074861;28;20045;-74
2020/12/21 02:54:37;;;;;;;8.13;1.90;;;;;;;5.67;86.62;100691.16;5073301;28;20053;-74
2020/12/21 02:57:05;;;;;;;14.57;1.95;;;;;;;5.64;86.94;100690.38;5074358;28;20048;-73
2020/12/21 02:59:31;;;;;;;8.70;1.70;;;;;;;5.66;86.99;100699.16;5074452;28;20057;-74
2020/12/21 03:01:57;;;;;;;7.22;1.48;;;;;;;5.69;86.65;100691.13;5074470;28;20098;-73
2020/12/21 03:04:23;;;;;;;9.55;1.85;;;;;;;5.59;86.70;100674.66;5074392;28;20052;-74
2020/12/21 03:06:49;;;;;;;12.75;2.40;;;;;;;5.64;86.60;100685.09;5074618;28;20052;-73
2020/12/21 03:09:15;;;;;;;11.68;1.60;;;;;;;5.66;86.41;100683.28;5073300;28;20052;-74
2020/12/21 03:11:46;;;;;;;8.45;1.75;;;;;;;5.61;86.39;100678.09;5074232;28;20481;-73
2020/12/21 03:14:13;;;;;;;8.32;1.98;;;;;;;5.66;86.54;100680.63;5074302;28;20048;-74
2020/12/21 03:16:39;;;;;;;7.90;2.45;;;;;;;5.65;86.72;100678.88;5074133;28;20080;-74
2020/12/21 03:19:06;;;;;;;11.98;2.35;;;;;;;5.71;86.21;100676.91;5074342;28;20094;-74
2020/12/21 03:21:32;;;;;;;4.03;1.48;;;;;;;5.69;86.46;100677.88;5074331;28;20398;-73
2020/12/21 03:24:00;;;;;;;10.00;2.00;;;;;;;5.68;86.26;100676.16;5074102;28;20049;-73
2020/12/21 03:26:26;;;;;;;7.80;1.63;;;;;;;5.65;86.35;100673.56;5056525;28;20085;-73
2020/12/21 03:28:52;;;;;;;11.27;2.08;;;;;;;5.68;86.14;100673.50;5076400;28;20222;-74
2020/12/21 03:31:19;;;;;;;13.00;1.90;;;;;;;5.71;86.10;100673.38;5076824;28;20392;-74
2020/12/21 03:33:45;;;;;;;7.57;2.28;;;;;;;5.76;85.77;100678.53;5076865;28;20354;-73
2020/12/21 03:36:11;;;;;;;9.68;2.15;;;;;;;5.79;85.69;100674.03;5077679;28;20045;-73
2020/12/21 03:38:37;;;;;;;9.73;1.88;;;;;;;5.77;85.16;100670.53;5077505;28;20059;-74
2020/12/21 03:41:03;;;;;;;4.72;1.70;;;;;;;5.74;85.18;100660.06;5077620;28;20060;-76
2020/12/21 03:43:30;;;;;;;9.32;2.05;;;;;;;5.71;85.45;100668.09;5077397;28;20396;-73
2020/12/21 03:45:56;;;;;;;12.85;1.80;;;;;;;5.77;84.82;100659.94;5076351;28;20052;-74
2020/12/21 03:48:22;;;;;;;14.25;2.13;;;;;;;5.81;84.94;100666.00;5077727;28;20426;-73
2020/12/21 03:50:48;;;;;;;14.68;2.20;;;;;;;5.79;84.88;100667.84;5077601;28;20090;-74
2020/12/21 03:53:14;;;;;;;10.18;1.70;;;;;;;5.70;84.92;100661.94;5076256;28;20048;-75
2020/12/21 03:55:41;;;;;;;11.35;1.73;;;;;;;5.70;85.25;100674.31;5078381;28;20053;-75
2020/12/21 03:58:07;;;;;;;16.00;2.35;;;;;;;5.67;85.27;100661.19;5078909;28;20055;-76
2020/12/21 04:00:33;;;;;;;13.77;2.13;;;;;;;5.52;85.42;100646.63;5076392;28;20079;-75
2020/12/21 04:02:59;;;;;;;9.88;2.05;;;;;;;5.66;84.95;100662.09;5077135;28;20493;-74
2020/12/21 04:05:43;;;;;;;19.05;3.53;;;;;;;5.56;85.38;100646.47;5077741;28;20057;-74
2020/12/21 04:08:09;;;;;;;9.75;2.38;;;;;;;5.55;85.37;100641.22;5075895;28;20430;-75
2020/12/21 04:10:35;;;;;;;13.40;1.88;;;;;;;5.57;85.37;100642.91;5077283;28;20053;-76
2020/12/21 04:13:01;;;;;;;13.07;2.10;;;;;;;5.48;85.25;100622.03;5076963;28;20109;-74
2020/12/21 04:15:28;;;;;;;9.63;1.95;;;;;;;5.63;85.52;100641.00;5076043;28;20048;-75
2020/12/21 04:17:54;;;;;;;10.43;1.70;;;;;;;5.58;85.00;100641.16;5076910;28;20531;-76
2020/12/21 04:20:20;;;;;;;11.55;2.30;;;;;;;5.65;85.15;100649.75;5077100;28;20052;-75
2020/12/21 04:22:46;;;;;;;8.90;1.83;;;;;;;5.70;84.79;100645.16;5075682;28;20331;-75
2020/12/21 04:25:13;;;;;;;7.25;1.77;;;;;;;5.68;84.51;100645.22;5076530;28;20353;-76
2020/12/21 04:27:41;;;;;;;7.60;1.63;;;;;;;5.74;84.44;100652.13;5075539;28;20049;-75
2020/12/21 04:30:07;;;;;;;10.25;2.00;;;;;;;5.65;84.68;100647.09;5076794;28;20315;-75
2020/12/21 04:32:33;;;;;;;5.20;1.20;;;;;;;5.69;84.70;100651.38;5076564;28;20064;-74
2020/12/21 04:34:59;;;;;;;8.95;2.10;;;;;;;5.67;84.91;100642.63;5075328;28;20377;-73
2020/12/21 04:37:25;;;;;;;9.75;1.48;;;;;;;5.66;84.91;100643.56;5076704;28;20052;-74
2020/12/21 04:39:52;;;;;;;13.40;2.13;;;;;;;5.76;84.52;100644.09;5075851;28;20121;-74
2020/12/21 04:42:18;;;;;;;9.48;1.83;;;;;;;5.80;84.33;100643.09;5076416;28;20045;-73
2020/12/21 04:44:44;;;;;;;10.55;1.92;;;;;;;5.81;84.21;100640.41;5076348;28;20429;-74
2020/12/21 04:47:11;;;;;;;11.40;2.50;;;;;;;5.82;84.35;100628.00;5076241;28;20040;-73
2020/12/21 04:49:40;;;;;;;7.50;1.45;;;;;;;5.87;84.14;100622.56;5076131;28;20346;-73
2020/12/21 04:52:06;;;;;;;11.15;2.03;;;;;;;5.90;83.56;100620.69;5076489;28;20074;-73
2020/12/21 04:54:33;;;;;;;15.85;1.90;;;;;;;5.84;83.86;100627.03;5075229;28;20052;-74
2020/12/21 04:56:59;;;;;;;11.05;1.92;;;;;;;5.89;84.13;100615.44;5076230;28;20052;-75
2020/12/21 04:59:26;;;;;;;11.95;2.35;;;;;;;5.92;83.74;100616.19;5076332;28;20075;-74
2020/12/21 05:01:55;;;;;;;7.28;1.77;;;;;;;5.98;83.80;100600.06;5074951;28;20052;-73
2020/12/21 05:04:24;;;;;;;8.82;2.03;;;;;;;6.05;83.24;100606.03;5075928;28;20446;-74
2020/12/21 05:06:55;;;;;;;11.82;2.40;;;;;;;6.01;83.83;100596.47;5075685;28;20053;-74
2020/12/21 05:09:22;;;;;;;15.43;1.95;;;;;;;6.01;83.39;100577.03;5076049;28;20056;-72
2020/12/21 05:12:07;;;;;;;10.13;2.00;;;;;;;6.08;83.53;100579.44;5075008;28;20072;-73
2020/12/21 05:14:35;;;;;;;9.30;2.08;;;;;;;6.13;83.53;100581.94;5075709;28;20182;-74
2020/12/21 05:17:10;;;;;;;13.02;1.90;;;;;;;6.13;83.18;100579.28;5075562;28;20049;-75
2020/12/21 05:19:36;;;;;;;6.97;1.88;;;;;;;6.13;83.39;100579.28;5076076;28;20063;-74
2020/12/21 05:22:17;;;;;;;9.25;1.80;;;;;;;6.09;83.61;100572.34;5075776;28;20128;-73
2020/12/21 05:24:43;;;;;;;7.32;1.70;;;;;;;6.20;83.41;100587.88;5075568;28;20059;-75
2020/12/21 05:27:15;;;;;;;12.38;1.88;;;;;;;6.19;83.53;100583.50;5074441;28;20052;-74
2020/12/21 05:29:41;;;;;;;10.30;1.67;;;;;;;6.19;83.60;100583.50;5075775;28;20056;-73
2020/12/21 05:32:17;;;;;;;9.07;1.75;;;;;;;6.21;83.41;100586.97;5075721;28;20049;-74
2020/12/21 05:34:43;;;;;;;7.55;2.65;;;;;;;6.20;83.62;100585.22;5075239;28;20075;-74
2020/12/21 05:37:16;;;;;;;11.02;1.83;;;;;;;6.25;83.43;100584.16;5075405;28;20339;-73
2020/12/21 05:39:54;;;;;;;9.45;2.20;;;;;;;6.15;83.49;100560.69;5075574;28;20048;-73
2020/12/21 05:42:23;;;;;;;11.32;2.13;;;;;;;6.22;83.39;100554.25;5074523;28;20338;-73
2020/12/21 05:45:00;;;;;;;9.55;1.98;;;;;;;6.28;83.29;100563.75;5074068;28;20056;-73
2020/12/21 05:47:29;;;;;;;11.73;1.70;;;;;;;6.28;83.19;100561.09;5075154;28;20131;-72
2020/12/21 05:49:56;;;;;;;12.00;2.00;;;;;;;6.28;83.58;100575.22;5074019;28;20060;-73
2020/12/21 05:52:28;;;;;;;8.13;1.65;;;;;;;6.34;83.21;100572.34;5074597;28;20048;-74
2020/12/21 05:54:54;;;;;;;8.90;1.67;;;;;;;6.28;83.01;100543.41;5074096;28;20056;-74
2020/12/21 05:57:20;;;;;;;15.32;2.17;;;;;;;6.41;83.20;100558.84;5074310;28;20074;-74
2020/12/21 05:59:51;;;;;;;10.00;1.52;;;;;;;6.41;83.08;100553.53;5074887;28;20136;-72
2020/12/21 06:02:18;;;;;;;8.77;2.20;;;;;;;6.38;83.04;100539.47;5073819;28;20110;-73
2020/12/21 06:04:49;;;;;;;9.90;2.38;;;;;;;6.44;82.68;100551.66;5074108;28;20055;-73
2020/12/21 06:07:22;;;;;;;;;;;;;;;6.47;83.11;100543.59;5075333;28;20056;-74
2020/12/21 06:09:50;;;;;;;10.55;1.75;;;;;;;6.50;82.86;100539.94;5074745;28;20297;-73
2020/12/21 06:12:21;;;;;;;12.20;2.22;;;;;;;6.53;82.96;100537.16;5074899;28;20052;-74
2020/12/21 06:14:50;;;;;;;7.97;1.75;;;;;;;6.33;83.29;100509.63;5074743;28;20048;-73
2020/12/21 06:17:16;;;;;;;8.65;2.40;;;;;;;6.58;82.97;100545.81;5057277;28;20056;-73
2020/12/21 06:19:43;;;;;;;12.18;1.98;;;;;;;6.60;82.77;100543.97;5073736;28;20048;-75
2020/12/21 06:22:09;;;;;;;11.15;2.40;;;;;;;6.55;83.30;100543.31;5074807;28;20052;-74
2020/12/21 06:24:38;;;;;;;12.52;2.47;;;;;;;6.44;83.23;100517.19;5074502;28;20048;-74
2020/12/21 06:27:22;;;;;;;10.10;2.42;;;;;;;6.59;83.30;100544.91;5074645;28;20113;-73
2020/12/21 06:29:58;;;;;;;9.88;2.53;;;;;;;6.56;83.75;100541.50;5073487;28;20057;-74
2020/12/21 06:32:31;;;;;;;15.13;2.72;;;;;;;6.58;83.45;100551.13;5074846;28;20045;-75
2020/12/21 06:34:58;;;;;;;10.55;2.28;;;;;;;6.63;83.21;100548.28;5074659;28;20434;-75
2020/12/21 06:37:25;;;;;;;15.82;3.15;;;;;;;6.60;83.07;100543.97;5074871;28;20052;-74
2020/12/21 06:40:00;;;;;;;7.95;2.30;;;;;;;6.62;83.31;100542.13;5074582;28;20063;-74
2020/12/21 06:42:26;;;;;;;7.20;1.92;;;;;;;6.63;83.35;100543.00;5074661;28;20048;-73
2020/12/21 06:44:54;;;;;;;12.80;2.13;;;;;;;6.64;83.67;100540.28;5073422;28;20060;-74
2020/12/21 06:47:26;;;;;;;9.48;2.88;;;;;;;6.76;83.25;100543.41;5073684;28;20051;-75
2020/12/21 06:49:53;;;;;;;9.75;1.73;;;;;;;6.77;83.25;100537.16;5073437;28;20064;-75
2020/12/21 06:52:20;;;;;;;12.10;1.85;;;;;;;6.72;83.04;100526.75;5074606;28;20052;-74
2020/12/21 06:54:50;;;;;;;10.85;2.28;;;;;;;6.83;82.95;100534.28;5073378;28;20060;-74
2020/12/21 06:57:16;;;;;;;7.65;2.03;;;;;;;6.84;83.18;100524.50;5074573;28;20044;-73
2020/12/21 06:59:43;;;;;;;7.25;2.08;;;;;;;6.83;83.25;100521.00;5074140;28;20057;-73
2020/12/21 07:02:09;;;;;;;12.25;2.38;;;;;;;6.83;83.01;100518.34;5064731;28;20453;-74
2020/12/21 07:04:35;;;;;;;17.88;3.78;;;;;;;6.88;82.96;100505.78;5064415;28;20098;-75
2020/12/21 07:07:04;;;;;;;9.45;2.30;;;;;;;6.95;83.06;100516.09;5071159;28;20048;-75
2020/12/21 07:09:35;;;;;;;13.40;2.83;;;;;;;6.93;83.26;100516.19;5060375;28;20430;-72
2020/12/21 07:12:11;;;;;;;12.63;2.40;;;;;;;6.97;82.98;100508.97;5078283;28;20135;-73
2020/12/21 07:14:38;;;;;;;14.05;2.55;;;;;;;6.96;82.91;100501.94;5078227;28;20067;-75
2020/12/21 07:17:12;;;;;;;15.88;2.80;;;;;;;6.99;83.29;100508.00;5077485;28;20437;-76
2020/12/21 07:19:42;;;;;;;10.23;2.35;;;;;;;7.01;83.21;100499.94;5078580;28;20124;-78
2020/12/21 07:22:10;;;;;;;11.10;2.45;;;;;;;6.99;83.18;100501.81;5068482;28;20105;-76
2020/12/21 07:24:38;;;;;;;11.82;2.97;;;;;;;7.00;83.18;100498.22;5075640;28;20048;-75
2020/12/21 07:27:06;;;;;;;13.55;2.60;;;;;;;7.01;83.36;100515.88;5072197;28;20044;-75
2020/12/21 07:29:40;;;;;;;15.50;2.45;;;;;;;7.06;83.40;100511.25;5066224;28;20430;-75
2020/12/21 07:32:07;;;;;;;10.35;2.55;;;;;;;7.02;83.24;100506.97;5066634;28;20053;-76
2020/12/21 07:34:34;;;;;;;7.45;2.13;;;;;;;7.07;83.18;100513.84;5068474;28;20053;-75
2020/12/21 07:37:08;;;;;;;7.97;2.33;;;;;;;7.00;83.40;100496.44;5072081;28;20124;-79
2020/12/21 07:39:34;;;;;;;7.90;2.42;;;;;;;7.09;83.46;100499.63;5065234;28;20048;-74
2020/12/21 07:42:03;;;;;;;10.60;2.17;;;;;;;7.11;83.32;100517.22;5067174;28;20355;-74
2020/12/21 07:44:33;;;;;;;16.75;2.40;;;;;;;7.17;83.23;100521.41;5062823;28;20092;-73
2020/12/21 07:47:02;;;;;;;9.75;2.58;;;;;;;7.20;83.22;100521.31;5056597;28;20067;-74
2020/12/21 07:49:36;;;;;;;9.05;2.53;;;;;;;7.16;83.73;100512.59;5061160;28;20044;-74
2020/12/21 07:52:06;;;;;;;8.07;2.03;;;;;;;7.20;83.41;100511.53;5071395;28;20056;-72
2020/12/21 07:54:33;;;;;;;8.88;2.35;;;;;;;7.25;83.39;100510.50;5059902;28;20438;-75
2020/12/21 07:57:04;;;;;;;11.02;2.35;;;;;;;7.16;83.36;100491.38;5071332;28;20049;-73
2020/12/21 07:59:30;;;;;;;6.40;1.85;;;;;;;7.23;83.40;100499.94;5066433;28;20051;-74
2020/12/21 08:02:05;;;;;;;13.23;2.40;;;;;;;7.33;83.11;100511.91;5067485;28;20049;-75
2020/12/21 08:04:32;;;;;;;13.35;2.83;;;;;;;7.37;82.81;100504.69;5057864;28;20053;-73
2020/12/21 08:07:08;;;;;;;10.55;2.30;;;;;;;7.43;83.03;100507.06;5057447;28;20053;-72
2020/12/21 08:09:38;;;;;;;11.75;2.60;;;;;;;7.40;82.40;100493.06;5057048;28;20060;-72
2020/12/21 08:12:11;;;;;;;11.70;2.55;;;;;;;7.46;82.78;100514.03;5062687;28;20349;-75
2020/12/21 08:14:37;;;;;;;11.10;2.30;;;;;;;7.50;82.53;100507.66;5075483;28;20056;-72
2020/12/21 08:17:17;;;;;;;11.02;3.08;;;;;;;7.55;82.54;100504.81;5076787;28;20131;-73
2020/12/21 08:19:51;;;;;;;4.97;2.20;;;;;;;7.54;82.42;100513.72;5076667;28;20052;-75
2020/12/21 08:22:29;;;;;;;12.07;2.38;;;;;;;7.55;82.41;100502.16;5071776;28;20088;-73
2020/12/21 08:25:14;;;;;;;10.60;2.50;;;;;;;7.52;82.54;100492.50;5076729;28;20081;-75
2020/12/21 08:27:49;;;;;;;12.05;3.15;;;;;;;7.59;82.58;100495.78;5069513;28;20051;-74
2020/12/21 08:30:20;;;;;;;10.15;2.70;;;;;;;7.61;82.38;100485.94;5065694;28;20049;-74
2020/12/21 08:32:47;;;;;;;14.20;2.72;;;;;;;7.63;82.34;100499.16;5065584;28;20045;-75
2020/12/21 08:35:23;;;;;;;13.75;2.83;;;;;;;7.64;82.50;100498.25;5066004;28;20044;-74
2020/12/21 08:37:49;;;;;;;8.57;2.83;;;;;;;7.59;82.77;100486.00;5068247;28;20445;-75
2020/12/21 08:40:16;;;;;;;14.02;3.47;;;;;;;7.62;82.62;100498.28;5058013;28;20049;-75
2020/12/21 08:42:46;;;;;;;13.88;2.65;;;;;;;7.52;82.49;100481.03;5064660;28;20071;-76
2020/12/21 08:45:22;;;;;;;7.03;2.70;;;;;;;7.66;82.54;100489.28;5066822;28;20049;-75
2020/12/21 08:47:49;;;;;;;8.73;2.53;;;;;;;7.75;82.50;100501.31;5061622;28;20411;-75
2020/12/21 08:50:16;;;;;;;11.07;2.40;;;;;;;7.72;82.67;100496.09;5061091;28;20048;-80
2020/12/21 08:52:42;;;;;;;9.00;2.80;;;;;;;7.75;82.43;100498.66;5072630;28;20048;-74
2020/12/21 08:55:08;;;;;;;11.45;2.60;;;;;;;7.59;82.28;100458.59;5067632;28;20056;-75
2020/12/21 08:57:42;;;;;;;10.95;2.58;;;;;;;7.82;82.17;100499.22;5072374;28;20444;-76
2020/12/21 09:00:08;;;;;;;9.00;2.60;;;;;;;7.87;82.19;100497.22;5062192;28;20049;-74
2020/12/21 09:02:34;;;;;;;12.02;3.53;;;;;;;7.92;82.01;100489.03;5070684;28;20087;-74
2020/12/21 09:05:03;;;;;;;10.07;2.90;;;;;;;7.95;81.84;100494.25;5066078;28;20052;-77
2020/12/21 09:07:34;;;;;;;9.43;2.72;;;;;;;7.94;81.88;100490.72;5058397;28;20135;-76
2020/12/21 09:10:01;;;;;;;8.63;2.90;;;;;;;8.01;81.57;100491.31;5056184;28;20083;-77
2020/12/21 09:12:28;;;;;;;8.98;2.58;;;;;;;8.07;81.26;100484.84;5057953;28;20049;-77
2020/12/21 09:14:54;;;;;;;7.40;2.45;;;;;;;8.12;81.00;100488.16;5054914;28;20056;-77
2020/12/21 09:17:21;;;;;;;7.90;2.60;;;;;;;8.15;80.85;100490.66;5057701;28;20052;-79
2020/12/21 09:19:47;;;;;;;11.88;2.55;;;;;;;8.10;81.01;100476.72;5056004;28;20053;-78
2020/12/21 09:22:13;;;;;;;6.55;2.22;;;;;;;8.06;81.13;100462.69;5073386;28;20048;-77
2020/12/21 09:24:41;;;;;;;8.23;3.47;;;;;;;8.10;82.01;100471.41;5066947;28;20386;-76
2020/12/21 09:27:07;;;;;;;11.60;2.67;;;;;;;8.07;82.14;100467.09;5048228;28;20647;-75
2020/12/21 09:29:33;;;;;;;7.88;2.63;;;;;;;8.03;82.42;100460.19;5055637;28;20057;-74
2020/12/21 09:31:59;;;;;;;6.25;2.50;;;;;;;7.98;82.76;100446.25;5073173;28;20060;-75
2020/12/21 09:34:26;;;;;;;9.15;2.50;;;;;;;8.01;82.97;100454.09;5072040;28;20053;-75
2020/12/21 09:36:52;;;;;;;12.60;2.72;;;;;;;8.04;82.86;100448.63;5073678;28;20262;-75
2020/12/21 09:39:18;;;;;;;5.70;2.35;;;;;;;8.00;83.02;100452.34;5074270;28;20103;-75
2020/12/21 09:41:44;;;;;;;6.75;2.30;;;;;;;7.99;82.90;100448.84;5074225;28;20056;-75
2020/12/21 09:44:10;;;;;;;9.95;2.42;;;;;;;8.07;83.10;100452.94;5074139;28;20060;-75
2020/12/21 09:46:37;;;;;;;10.07;2.53;;;;;;;8.01;83.09;100438.16;5074237;28;20059;-76
2020/12/21 09:49:04;;;;;;;7.82;2.35;;;;;;;8.13;82.22;100428.75;5057469;28;20053;-75
2020/12/21 09:51:30;;;;;;;8.52;2.58;;;;;;;8.04;82.63;100405.22;5075268;28;20048;-76
2020/12/21 09:53:57;;;;;;;7.07;2.65;;;;;;;8.17;82.23;100427.63;5073400;28;20418;-75
2020/12/21 09:56:23;;;;;;;7.35;2.38;;;;;;;8.14;82.35;100434.00;5075176;28;20056;-75
2020/12/21 09:58:49;;;;;;;6.47;2.20;;;;;;;8.20;82.15;100434.63;5075008;28;20052;-75
2020/12/21 10:01:15;;;;;;;5.88;2.00;;;;;;;8.23;81.83;100418.53;5075251;28;20044;-76
2020/12/21 10:03:42;;;;;;;6.35;2.15;;;;;;;8.28;81.71;100412.06;5074918;28;20059;-74
2020/12/21 10:06:10;;;;;;;6.47;2.13;;;;;;;8.28;81.18;100388.13;5073873;28;20131;-75
2020/12/21 10:08:38;;;;;;;9.73;2.67;;;;;;;8.28;81.10;100377.47;5074798;28;20051;-75
2020/12/21 10:11:06;;;;;;;7.97;2.35;;;;;;;8.38;80.68;100369.03;5074665;28;20067;-76
2020/12/21 10:13:33;;;;;;;6.22;2.15;;;;;;;8.36;80.31;100355.84;5074049;28;20469;-75
2020/12/21 10:15:59;;;;;;;6.70;2.20;;;;;;;8.52;79.96;100379.06;5074277;28;20078;-75
2020/12/21 10:18:26;;;;;;;5.78;1.90;;;;;;;8.51;79.66;100370.19;5074488;28;20509;-74
2020/12/21 10:20:52;;;;;;;4.38;1.85;;;;;;;8.51;79.61;100375.53;5073658;28;20485;-73
2020/12/21 10:23:18;;;;;;;5.20;1.70;;;;;;;8.55;79.22;100377.09;5075071;28;20106;-76
2020/12/21 10:25:44;;;;;;;5.13;1.50;;;;;;;8.60;79.43;100352.09;5074944;28;20056;-74
2020/12/21 10:28:11;;;;;;;3.85;1.48;;;;;;;8.58;79.11;100346.84;5075207;28;20048;-75
2020/12/21 10:30:38;;;;;;;3.28;1.45;;;;;;;8.66;78.16;100343.81;5057275;28;20068;-75
2020/12/21 10:33:05;;;;;;;4.30;1.35;;;;;;;8.71;77.57;100352.41;5056497;28;20134;-74
2020/12/21 10:35:31;;;;;;;3.33;1.05;;;;;;;8.76;77.36;100339.72;5073157;28;20062;-74
2020/12/21 10:37:57;;;;;;;4.40;1.35;;;;;;;8.67;77.35;100300.28;5075518;28;20052;-73
2020/12/21 10:40:24;;;;;;;5.38;1.60;;;;;;;8.78;76.73;100315.72;5078389;28;20513;-73
2020/12/21 10:42:50;;;;;;;4.85;1.20;;;;;;;8.91;76.84;100319.47;5078786;28;20076;-75
2020/12/21 10:45:16;;;;;;;1.70;1.00;;;;;;;8.97;76.43;100323.59;5060650;28;20422;-75
2020/12/21 10:47:42;;;;;;;7.25;1.50;;;;;;;8.98;76.11;100316.47;5078860;28;20422;-76
2020/12/21 10:50:09;;;;;;;6.60;1.30;;;;;;;8.89;76.19;100296.50;5079400;28;20079;-73
2020/12/21 10:52:35;;;;;;;4.45;1.50;;;;;;;9.01;75.46;100309.19;5078677;28;20048;-75
2020/12/21 10:55:02;;;;;;;3.42;1.10;;;;;;;9.04;75.35;100293.03;5077683;28;20052;-74
2020/12/21 10:57:28;;;;;;;5.70;1.02;;;;;;;8.99;75.26;100272.94;5075437;28;20098;-74
2020/12/21 10:59:54;;;;;;;5.13;1.00;;;;;;;9.02;74.74;100265.66;5078442;28;20048;-75
2020/12/21 11:02:20;;;;;;;2.60;0.98;;;;;;;8.99;74.55;100254.31;5078042;28;20048;-76
2020/12/21 11:04:47;;;;;;;4.45;1.30;;;;;;;8.91;74.55;100231.63;5077710;28;20350;-75
2020/12/21 11:07:14;;;;;;;3.38;0.98;;;;;;;8.88;73.62;100222.94;5078414;28;20044;-75
2020/12/21 11:09:40;;;;;;;5.55;0.75;;;;;;;9.04;73.32;100231.81;5078028;28;20048;-74
2020/12/21 11:12:07;;;;;;;3.78;0.90;;;;;;;8.97;72.69;100219.78;5077462;28;20044;-75
2020/12/21 11:14:33;;;;;;;4.15;0.77;;;;;;;8.93;72.73;100223.56;5077465;28;20056;-75
2020/12/21 11:17:00;;;;;;;2.45;0.80;;;;;;;9.06;72.42;100221.09;5077700;28;20053;-75
2020/12/21 11:19:26;;;;;;;2.30;0.80;;;;;;;8.96;72.47;100197.63;5078021;28;20426;-73
2020/12/21 11:21:52;;;;;;;5.82;0.65;;;;;;;9.08;71.56;100197.88;5078619;28;20121;-74
2020/12/21 11:24:18;;;;;;;2.92;0.80;;;;;;;9.05;71.60;100198.91;5076784;28;20430;-74
2020/12/21 11:26:44;;;;;;;1.90;0.88;;;;;;;9.04;71.77;100199.03;5077890;28;20132;-75
2020/12/21 11:29:10;;;;;;;2.47;0.80;;;;;;;9.06;71.60;100205.97;5077499;28;20458;-73
2020/12/21 11:31:37;;;;;;;3.13;0.98;;;;;;;9.00;70.89;100187.69;5074872;28;20457;-74
2020/12/21 11:34:04;;;;;;;2.72;0.68;;;;;;;9.03;71.22;100192.81;5070420;28;20052;-75